»·PEaware :: N71K KPSP-KSBP

N71K :: KPSP-KSBP

FLIGHT INFORMATION

Flight Status: Arrived
Operator: Privately registered:
United States
More flights under this callsign
Pilot: Ryan C. (15122)
Aircraft: BOMBARDIER BD-100 CHALLENGER 300
(CL30)
More flights by this aircraft type
Origin: KPSP Palm Springs Intl
United States
Destination: KSBP San Luis Co Regl
United States
More flights between these airports :: More routes between these airports
Route: CATH1 PSP V386 PMD FIM RZS MQO
File this flight plan on PilotEdge
Remarks:
Altitude:
(Current/Filed)
16,000ft
Speed:
(Current/Filed)
400kts
Departed: 23-Apr-19 09:40 PM
Arrived: 23-Apr-19 10:32 PM
Distance/Time
Traveled:
221nm/0:52
Distance/Time
To Go:
Arrived

Flight Plot

Page will automatically refresh every two minutes.


Map Options




Map Legend


Flown Route
Filed Route
Departure Airport
Arrival Airport
Navaid (VOR, NDB)
Fix

Horizontal Profiles

Position Reports

Time Latitude Longitude Heading Altitude Ground
Speed
23-Apr-19 21:12 33.825240 -116.509540 359 429ft 0kts
23-Apr-19 21:13 33.825240 -116.509540 359 429ft 0kts
23-Apr-19 21:14 33.825240 -116.509540 359 429ft 0kts
23-Apr-19 21:15 33.825240 -116.509540 359 429ft 0kts
23-Apr-19 21:16 33.825240 -116.509540 359 429ft 0kts
23-Apr-19 21:17 33.825240 -116.509540 359 429ft 0kts
23-Apr-19 21:18 33.825240 -116.509540 359 429ft 0kts
23-Apr-19 21:19 33.825240 -116.509540 359 429ft 0kts
23-Apr-19 21:20 33.825240 -116.509540 359 429ft 0kts
23-Apr-19 21:21 33.825240 -116.509540 359 429ft 0kts
23-Apr-19 21:22 33.825240 -116.509540 359 429ft 0kts
23-Apr-19 21:23 33.825240 -116.509540 359 429ft 0kts
23-Apr-19 21:24 33.825240 -116.509540 359 429ft 0kts
23-Apr-19 21:25 33.825240 -116.509540 359 429ft 0kts
23-Apr-19 21:26 33.825240 -116.509540 359 429ft 0kts
23-Apr-19 21:27 33.825240 -116.509540 359 429ft 0kts
23-Apr-19 21:28 33.825240 -116.509540 359 429ft 0kts
23-Apr-19 21:29 33.825240 -116.509540 359 429ft 0kts
23-Apr-19 21:30 33.825240 -116.509540 359 429ft 0kts
23-Apr-19 21:31 33.825240 -116.509540 359 429ft 0kts
23-Apr-19 21:32 33.825412 -116.509465 45 429ft 4kts
23-Apr-19 21:33 33.825426 -116.509033 99 429ft 0kts
23-Apr-19 21:34 33.825360 -116.507887 90 429ft 6kts
23-Apr-19 21:35 33.824874 -116.505445 143 429ft 10kts
23-Apr-19 21:36 33.821435 -116.502370 143 429ft 16kts
23-Apr-19 21:37 33.818668 -116.499909 142 429ft 8kts
23-Apr-19 21:38 33.818522 -116.499061 87 429ft 2kts
23-Apr-19 21:39 33.824962 -116.503451 322 431ft 132kts
23-Apr-19 21:40 33.861763 -116.538797 320 4332ft 212kts
23-Apr-19 21:41 33.916199 -116.569534 22 6985ft 253kts
23-Apr-19 21:42 33.913539 -116.492746 126 9176ft 299kts
23-Apr-19 21:43 33.866292 -116.420432 115 13132ft 291kts
23-Apr-19 21:44 33.822890 -116.319000 115 13965ft 378kts
23-Apr-19 21:45 33.759476 -116.219370 163 14020ft 390kts
23-Apr-19 21:46 33.675986 -116.282523 258 15918ft 408kts
23-Apr-19 21:47 33.725808 -116.379679 351 15938ft 369kts
23-Apr-19 21:48 33.823852 -116.408808 340 15970ft 362kts
23-Apr-19 21:50 33.918652 -116.448737 342 15970ft 361kts
23-Apr-19 21:51 34.014611 -116.486222 342 15970ft 364kts
23-Apr-19 21:52 34.111118 -116.523991 342 15981ft 366kts
23-Apr-19 21:53 34.208396 -116.562154 342 16010ft 367kts
23-Apr-19 21:54 34.305495 -116.600336 342 16022ft 369kts
23-Apr-19 21:55 34.403045 -116.638800 342 16051ft 369kts
23-Apr-19 21:56 34.494144 -116.691865 304 16047ft 375kts
23-Apr-19 21:57 34.520806 -116.815539 286 16055ft 381kts
23-Apr-19 21:58 34.546106 -116.940964 286 15944ft 385kts
23-Apr-19 21:59 34.571557 -117.067362 287 15956ft 386kts
23-Apr-19 22:00 34.597054 -117.194503 287 15972ft 388kts
23-Apr-19 22:01 34.622488 -117.322106 287 15972ft 390kts
23-Apr-19 22:02 34.647946 -117.450550 287 15972ft 392kts
23-Apr-19 22:03 34.673354 -117.579527 287 15972ft 392kts
23-Apr-19 22:04 34.698769 -117.709343 286 15965ft 393kts
23-Apr-19 22:05 34.724020 -117.839060 286 15953ft 393kts
23-Apr-19 22:06 34.749001 -117.968175 286 15965ft 392kts
23-Apr-19 22:07 34.773801 -118.097163 286 15997ft 391kts
23-Apr-19 22:07 34.794383 -118.204810 286 15994ft 392kts
23-Apr-19 22:09 34.823071 -118.355773 286 15976ft 392kts
23-Apr-19 22:10 34.847476 -118.485064 286 16027ft 391kts
23-Apr-19 22:10 34.867694 -118.592788 286 16078ft 390kts
23-Apr-19 22:11 34.891985 -118.722904 286 16088ft 391kts
23-Apr-19 22:13 34.919998 -118.873918 285 16049ft 392kts
23-Apr-19 22:13 34.939413 -118.979292 284 15973ft 393kts
23-Apr-19 22:14 34.963298 -119.109821 284 15915ft 393kts
23-Apr-19 22:16 34.990852 -119.261395 284 15915ft 391kts
23-Apr-19 22:16 35.010379 -119.369476 284 15914ft 391kts
23-Apr-19 22:17 35.033643 -119.498996 284 15914ft 390kts
23-Apr-19 22:18 35.056688 -119.628132 284 15926ft 390kts
23-Apr-19 22:19 35.078691 -119.752198 283 14932ft 364kts
23-Apr-19 22:20 35.099247 -119.868800 283 13703ft 340kts
23-Apr-19 22:21 35.118501 -119.978659 283 12494ft 321kts
23-Apr-19 22:22 35.136628 -120.082645 283 11230ft 305kts
23-Apr-19 22:23 35.153740 -120.181293 283 9828ft 290kts
23-Apr-19 22:24 35.169930 -120.275120 283 8421ft 277kts
23-Apr-19 22:25 35.185768 -120.367371 282 7023ft 274kts
23-Apr-19 22:26 35.195200 -120.456097 267 5461ft 254kts
23-Apr-19 22:27 35.182735 -120.536800 249 3888ft 219kts
23-Apr-19 22:28 35.191988 -120.583826 345 2831ft 142kts
23-Apr-19 22:29 35.220763 -120.611245 302 1009ft 134kts
23-Apr-19 22:30 35.239058 -120.643821 304 182ft 69kts
23-Apr-19 22:31 35.242709 -120.648384 122 182ft 6kts
23-Apr-19 22:32 35.240867 -120.645088 125 182ft 13kts
23-Apr-19 22:33 35.238572 -120.641254 124 182ft 13kts
23-Apr-19 22:34 35.236215 -120.636887 125 182ft 14kts
23-Apr-19 22:35 35.236864 -120.636351 205 182ft 2kts
23-Apr-19 22:36 35.236820 -120.636347 161 182ft 0kts

Navigation Log

Ident Type
Flight plan parsing failed, navigation log unavailable